Iba, Philippines

7:43 PM PHT on October 23, 2014 (GMT +0800)
Subic Bay International | Change Station
CLOSE
Current Station
Airport
Location: Subic Bay,
Elevation: 62 ft
Nearby Weather Stations

Elev 62 ft 14.79 °N, 120.27 °E | Updated 43 minutes ago

Scattered Clouds
Scattered Clouds
82 °F
Feels Like 88 °F
N
2
Wind Variable Wind from ENE

Today
High -- | Low -- °F
--% Chance of Precip.
Yesterday
High -- | Low -- °F
Precip. -- in
5:53 AM 5:35 PM
Waning Crescent, 0% visible
Pressure 29.83 in
Visibility 6.2 miles
Clouds Few 2000 ft
Scattered Clouds 8000 ft
Heat Index 88 °F
Dew Point 73 °F
Humidity 74%
Rainfall 0.00 in
Snow Depth Not available.
UV 0 out of 12
Pollen Not available.
Air Quality Not available.
Flu Activity Not available.
METAR RPLB 231100Z 06002KT 9999 FEW020 SCT080 28/23 Q1010 NOSIG RMK A2983

More Conditions Fewer Conditions

Pressure 29.83 in
Visibility 6.2 miles
Clouds Few 2000 ft
Scattered Clouds 8000 ft
Heat Index 88 °F
Dew Point 73 °F
Humidity 74%
Rainfall 0.00 in
Snow Depth Not available.
UV 0 out of 12
Pollen Not available.
Air Quality Not available.
Flu Activity Not available.
METAR RPLB 231100Z 06002KT 9999 FEW020 SCT080 28/23 Q1010 NOSIG RMK A2983

More Conditions Fewer Conditions

10-Day Weather Forecast

Almanac

Astronomy

Oct. 23, 2014 Rise Set
Actual Time 5:53 AM PHT 5:35 PM PHT
Civil Twilight 5:31 AM PHT 5:57 PM PHT
Nautical Twilight 5:06 AM PHT 6:22 PM PHT
Astronomical Twilight 4:41 AM PHT 6:47 PM PHT
Moon 5:07 AM PHT 5:11 PM PHT
Length of Visible Light 12h 25m
Length of Day
11h 41m
Tomorrow will be 0m 47s shorter.
Waning Crescent, 0% of the Moon is Illuminated
Today
Waning Crescent
Oct 23
New
Oct 30
First Quarter
Nov 6
Full
Nov 14
Last Quarter

Yesterday's Extremes

Country Highs Country Lows

Community

WunderPhotos

Upload Photos

1,764,209 photos uploaded!

Nearby

Snow Depth

Not available.

Earthquake Activity

City Distance Mag. Time & Date
No recent earthquake activity has been reported nearby.
Minimum magnitude displayed is 2.5.

Coastal Water Temperatures

Place Temperature
No Stations Reporting

Nearby Weather Stations